Time;durP1;ratioP1;P1;durP2;ratioP2;P2;SDS_P1;SDS_P2;PMS_P1;PMS_P2;Temp;Humidity;BMP_temperature;BMP_pressure;BME280_temperature;BME280_humidity;BME280_pressure;Samples;Min_cycle;Max_cycle;Signal;HPM_P1;HPM_P2
2021/07/21 00:00:53;;;;;;;7.18;5.85;;;;;;;17.59;77.49;101539.31;6234886;22;20788;-85
2021/07/21 00:03:21;;;;;;;5.53;4.95;;;;;;;17.55;77.09;101535.88;6233402;22;20023;-87
2021/07/21 00:05:48;;;;;;;9.93;6.57;;;;;;;17.54;76.93;101531.47;6235368;22;20495;-87
2021/07/21 00:08:19;;;;;;;7.60;5.95;;;;;;;17.53;77.47;101533.25;6259443;22;20218;-86
2021/07/21 00:10:49;;;;;;;7.72;5.88;;;;;;;17.51;77.59;101527.13;6262555;22;20019;-86
2021/07/21 00:13:31;;;;;;;8.07;6.18;;;;;;;17.51;77.89;101531.56;6262313;22;20023;-86
2021/07/21 00:16:08;;;;;;;8.05;5.72;;;;;;;17.49;77.91;101525.41;6234973;22;20043;-86
2021/07/21 00:18:45;;;;;;;6.18;5.22;;;;;;;17.47;77.75;101532.50;6262346;22;20050;-86
2021/07/21 00:21:15;;;;;;;5.72;4.80;;;;;;;17.45;77.80;101526.41;6235718;22;20023;-83
2021/07/21 00:23:43;;;;;;;8.63;6.18;;;;;;;17.43;78.03;101533.50;6260847;22;20334;-87
2021/07/21 00:26:10;;;;;;;7.32;5.60;;;;;;;17.43;78.16;101530.84;6232723;22;20493;-87
2021/07/21 00:28:39;;;;;;;6.10;5.50;;;;;;;17.41;78.31;101525.59;6236767;22;20027;-86
2021/07/21 00:31:06;;;;;;;5.95;5.25;;;;;;;17.41;78.41;101530.03;6262832;22;20050;-87
2021/07/21 00:33:32;;;;;;;8.55;5.40;;;;;;;17.40;78.48;101529.13;6233605;22;20130;-85
2021/07/21 00:35:59;;;;;;;7.85;6.20;;;;;;;17.40;78.37;101529.13;6235358;22;20054;-86
2021/07/21 00:38:25;;;;;;;10.75;6.53;;;;;;;17.39;78.56;101531.81;6234085;22;20023;-86
2021/07/21 00:40:52;;;;;;;7.03;5.18;;;;;;;17.40;78.57;101521.19;6236473;22;20114;-86
2021/07/21 00:43:19;;;;;;;7.95;6.50;;;;;;;17.38;78.89;101517.75;6237023;22;20061;-86
2021/07/21 00:45:45;;;;;;;7.93;6.25;;;;;;;17.36;79.27;101523.06;6230109;22;20107;-86
2021/07/21 00:48:12;;;;;;;6.80;5.43;;;;;;;17.35;79.10;101523.97;6236669;22;20020;-86
2021/07/21 00:50:38;;;;;;;10.02;6.63;;;;;;;17.31;79.30;101517.00;6234385;22;20080;-86
2021/07/21 00:53:05;;;;;;;12.20;5.65;;;;;;;17.27;79.54;101522.41;6236941;22;20342;-86
2021/07/21 00:55:32;;;;;;;9.20;5.85;;;;;;;17.24;79.53;101518.03;6231937;22;20107;-86
2021/07/21 00:57:59;;;;;;;8.18;6.15;;;;;;;17.23;79.81;101508.34;6236346;22;20630;-86
2021/07/21 01:00:25;;;;;;;6.95;5.70;;;;;;;17.23;79.96;101518.09;6234905;22;20517;-87
2021/07/21 01:02:54;;;;;;;6.65;6.00;;;;;;;17.20;79.99;101519.88;6229427;22;20027;-86
2021/07/21 01:05:31;;;;;;;7.78;5.97;;;;;;;17.20;80.09;101513.72;6257054;22;20022;-85
2021/07/21 01:07:57;;;;;;;9.38;6.90;;;;;;;17.19;80.18;101512.00;6257329;22;20023;-86
2021/07/21 01:10:26;;;;;;;8.02;5.95;;;;;;;17.18;80.08;101512.88;6234054;22;20019;-86
2021/07/21 01:13:16;;;;;;;9.43;6.57;;;;;;;17.16;80.73;101515.56;6235594;22;20038;-86
2021/07/21 01:16:17;;;;;;;7.22;6.07;;;;;;;17.16;80.31;101523.50;6258218;22;20031;-86
2021/07/21 01:19:41;;;;;;;9.32;6.60;;;;;;;17.14;80.98;101525.34;6249227;22;20127;-86
2021/07/21 01:22:20;;;;;;;7.65;5.22;;;;;;;17.11;80.78;101529.81;6217087;22;20397;-87
2021/07/21 01:25:20;;;;;;;10.38;6.55;;;;;;;17.11;81.13;101532.47;6260467;22;20035;-86
2021/07/21 01:28:01;;;;;;;8.18;6.95;;;;;;;17.10;81.02;101523.63;6258607;22;20027;-86
2021/07/21 01:30:37;;;;;;;7.38;6.57;;;;;;;17.08;81.12;101525.47;6234585;22;20011;-86
2021/07/21 01:33:09;;;;;;;10.57;6.25;;;;;;;17.07;81.06;101523.72;6232413;22;20138;-87
2021/07/21 01:35:48;;;;;;;7.07;5.85;;;;;;;17.06;81.28;101529.91;6260620;22;20110;-84
2021/07/21 01:38:30;;;;;;;8.02;6.85;;;;;;;17.08;81.32;101535.16;6232604;22;20024;-85
2021/07/21 01:41:13;;;;;;;8.18;6.47;;;;;;;17.07;81.32;101530.81;6236521;22;20054;-86
2021/07/21 01:43:44;;;;;;;8.43;6.40;;;;;;;17.07;81.68;101528.16;6232070;22;20019;-85
2021/07/21 01:46:12;;;;;;;9.68;7.22;;;;;;;17.08;81.17;101527.22;6234838;22;20099;-87
2021/07/21 01:48:42;;;;;;;8.80;5.47;;;;;;;17.08;81.48;101527.22;6258395;22;20046;-88
2021/07/21 01:51:12;;;;;;;8.45;6.60;;;;;;;17.08;81.62;101529.88;6260664;22;20289;-86
2021/07/21 01:53:41;;;;;;;10.27;6.72;;;;;;;17.07;81.84;101533.44;6235448;22;20313;-86
2021/07/21 01:56:11;;;;;;;8.15;6.30;;;;;;;17.07;81.98;101534.31;6257815;22;20019;-85
2021/07/21 01:58:39;;;;;;;6.68;5.75;;;;;;;17.06;82.05;101531.69;6235230;22;20681;-86
2021/07/21 02:01:10;;;;;;;11.07;7.82;;;;;;;17.05;81.98;101528.16;6232818;22;20099;-85
2021/07/21 02:03:42;;;;;;;13.55;7.53;;;;;;;17.05;82.06;101536.09;6236987;22;20110;-85
2021/07/21 02:06:11;;;;;;;8.45;6.97;;;;;;;17.01;82.53;101532.66;6262032;22;20497;-86
2021/07/21 02:08:39;;;;;;;9.52;6.95;;;;;;;16.99;82.53;101530.97;6262964;22;20015;-85
2021/07/21 02:11:09;;;;;;;11.27;7.03;;;;;;;16.97;82.55;101533.66;6236955;22;20019;-86
2021/07/21 02:13:37;;;;;;;7.68;6.32;;;;;;;16.95;82.80;101518.72;6233360;22;20468;-86
2021/07/21 02:16:06;;;;;;;7.40;6.47;;;;;;;16.93;82.99;101526.66;6234931;22;20031;-86
2021/07/21 02:18:34;;;;;;;10.10;7.47;;;;;;;16.91;83.09;101533.78;6233919;22;20030;-86
2021/07/21 02:21:07;;;;;;;10.77;7.32;;;;;;;16.90;83.18;101521.44;6261338;22;20218;-86
2021/07/21 02:23:35;;;;;;;9.43;7.18;;;;;;;16.89;83.23;101527.59;6210554;22;20027;-86
2021/07/21 02:26:03;;;;;;;7.72;6.43;;;;;;;16.86;83.64;101527.69;6257395;22;20024;-85
2021/07/21 02:28:30;;;;;;;12.65;6.95;;;;;;;16.86;83.42;101525.88;6236142;22;20116;-85
2021/07/21 02:31:01;;;;;;;11.82;7.32;;;;;;;16.83;83.92;101523.31;6232499;22;20383;-86
2021/07/21 02:33:40;;;;;;;10.18;7.25;;;;;;;16.80;84.21;101525.16;6261195;22;20494;-87
2021/07/21 02:36:07;;;;;;;9.43;6.90;;;;;;;16.79;84.11;101528.69;6258374;22;20507;-87
2021/07/21 02:38:34;;;;;;;10.50;7.03;;;;;;;16.79;84.13;101521.66;6235452;22;20031;-87
2021/07/21 02:41:00;;;;;;;9.10;6.43;;;;;;;16.78;84.20;101522.53;6236450;22;20055;-84
2021/07/21 02:43:27;;;;;;;10.10;6.97;;;;;;;16.78;84.29;101521.66;6259979;22;20023;-84
2021/07/21 02:45:54;;;;;;;7.82;6.28;;;;;;;16.77;84.32;101520.78;6259949;22;20091;-84
2021/07/21 02:48:21;;;;;;;9.30;7.07;;;;;;;16.78;84.34;101522.53;6233158;22;20050;-84
2021/07/21 02:50:57;;;;;;;8.38;6.82;;;;;;;16.78;84.44;101519.91;6261814;22;20046;-84
2021/07/21 02:53:32;;;;;;;8.98;6.43;;;;;;;16.78;84.38;101525.19;6234617;22;20035;-84
2021/07/21 02:56:14;;;;;;;8.07;6.57;;;;;;;16.77;84.66;101526.09;6235704;22;20300;-85
2021/07/21 02:58:48;;;;;;;7.85;6.18;;;;;;;16.78;84.53;101521.66;6237135;22;20358;-86
2021/07/21 03:01:21;;;;;;;9.95;7.57;;;;;;;16.77;84.60;101526.09;6257197;22;20053;-84
2021/07/21 03:03:53;;;;;;;7.20;6.13;;;;;;;16.76;84.83;101520.84;6261578;22;20073;-86
2021/07/21 03:06:23;;;;;;;6.50;5.45;;;;;;;16.74;84.90;101525.28;6257971;22;20358;-87
2021/07/21 03:08:52;;;;;;;7.22;5.97;;;;;;;16.75;84.74;101527.91;6262329;22;20385;-86
2021/07/21 03:11:22;;;;;;;10.73;7.30;;;;;;;16.75;84.93;101527.03;6258424;22;20030;-86
2021/07/21 03:14:01;;;;;;;7.95;6.32;;;;;;;16.73;84.93;101532.34;6234461;22;20031;-86
2021/07/21 03:16:34;;;;;;;6.57;5.95;;;;;;;16.76;85.03;101540.19;6236235;22;20032;-86
2021/07/21 03:19:06;;;;;;;10.63;6.50;;;;;;;16.78;84.94;101537.53;6233367;22;20023;-86
2021/07/21 03:21:35;;;;;;;9.48;6.80;;;;;;;16.76;85.09;101537.56;6236209;22;20030;-86
2021/07/21 03:24:04;;;;;;;11.75;7.18;;;;;;;16.75;85.19;101543.78;6231455;22;20027;-86
2021/07/21 03:26:33;;;;;;;11.70;7.07;;;;;;;16.75;85.26;101540.25;6261272;22;20032;-86
2021/07/21 03:29:01;;;;;;;8.05;6.63;;;;;;;16.73;85.25;101542.91;6234200;22;20027;-86
2021/07/21 03:31:28;;;;;;;9.27;7.15;;;;;;;16.72;85.38;101541.16;6234958;22;20398;-86
2021/07/21 03:34:10;;;;;;;9.52;6.78;;;;;;;16.73;85.38;101544.72;6260951;22;20024;-86
2021/07/21 03:36:42;;;;;;;9.13;6.88;;;;;;;16.72;85.37;101542.97;6233018;22;20365;-84
2021/07/21 03:39:11;;;;;;;12.23;7.85;;;;;;;16.69;85.59;101536.81;6263195;22;20047;-86
2021/07/21 03:41:39;;;;;;;6.82;6.13;;;;;;;16.68;85.80;101540.34;6236319;22;20015;-85
2021/07/21 03:44:10;;;;;;;8.63;6.95;;;;;;;16.67;85.98;101543.03;6233242;22;20531;-86
2021/07/21 03:46:41;;;;;;;9.95;8.00;;;;;;;16.66;86.16;101549.22;6233761;22;20703;-85
2021/07/21 03:49:09;;;;;;;11.70;8.35;;;;;;;16.64;86.40;101548.41;6237032;22;20540;-85
2021/07/21 03:51:39;;;;;;;12.98;8.48;;;;;;;16.62;86.39;101551.06;6261058;22;20122;-86
2021/07/21 03:54:10;;;;;;;11.32;8.15;;;;;;;16.63;86.72;101547.50;6257896;22;20595;-86
2021/07/21 03:56:43;;;;;;;10.88;8.18;;;;;;;16.64;86.78;101551.91;6263092;22;20487;-86
2021/07/21 03:59:15;;;;;;;16.83;8.93;;;;;;;16.63;86.58;101550.16;6233733;22;20024;-85
2021/07/21 04:01:43;;;;;;;11.73;7.13;;;;;;;16.62;86.73;101556.38;6236887;22;20034;-86
2021/07/21 04:04:11;;;;;;;9.63;7.50;;;;;;;16.63;86.65;101554.59;6232241;22;20074;-85
2021/07/21 04:06:39;;;;;;;14.15;8.95;;;;;;;16.61;86.93;101559.91;6260406;22;20021;-85
2021/07/21 04:09:11;;;;;;;10.25;8.05;;;;;;;16.63;87.17;101567.78;6236452;22;20030;-86
2021/07/21 04:11:40;;;;;;;11.70;8.52;;;;;;;16.64;86.97;101566.91;6232143;22;20022;-86
2021/07/21 04:14:11;;;;;;;11.27;7.72;;;;;;;16.63;87.14;101568.66;6234958;22;20024;-85
2021/07/21 04:16:42;;;;;;;11.40;8.38;;;;;;;16.61;87.22;101567.84;6257118;22;20015;-85
2021/07/21 04:19:11;;;;;;;11.63;8.15;;;;;;;16.65;87.37;101573.94;6233500;22;20020;-85
2021/07/21 04:21:41;;;;;;;12.93;7.75;;;;;;;16.64;87.33;101573.06;6235212;22;20045;-85
2021/07/21 04:24:10;;;;;;;13.00;8.20;;;;;;;16.65;87.27;101572.16;6232017;22;20077;-85
2021/07/21 04:26:39;;;;;;;15.82;8.80;;;;;;;16.66;87.46;101568.63;6236613;22;20446;-86
2021/07/21 04:29:11;;;;;;;16.38;9.07;;;;;;;16.67;87.50;101572.13;6234894;22;20026;-85
2021/07/21 04:31:40;;;;;;;14.48;7.97;;;;;;;16.67;87.54;101564.19;6236123;22;20028;-85
2021/07/21 04:34:08;;;;;;;15.18;7.70;;;;;;;16.71;87.49;101571.16;6233766;22;20043;-85
2021/07/21 04:36:38;;;;;;;10.95;8.10;;;;;;;16.73;87.38;101572.00;6263748;22;20031;-86
2021/07/21 04:39:06;;;;;;;12.07;8.60;;;;;;;16.74;87.55;101578.16;6237928;22;20118;-86
2021/07/21 04:41:35;;;;;;;13.68;8.00;;;;;;;16.76;87.46;101574.56;6233129;22;20070;-85
2021/07/21 04:44:03;;;;;;;17.08;8.85;;;;;;;16.81;87.58;101583.28;6238501;22;20038;-86
2021/07/21 04:46:37;;;;;;;11.40;7.93;;;;;;;16.86;87.23;101584.06;6236440;22;20032;-85
2021/07/21 04:49:05;;;;;;;11.65;7.75;;;;;;;16.89;87.16;101582.28;6238602;22;20115;-85
2021/07/21 04:51:34;;;;;;;13.32;9.05;;;;;;;16.91;87.08;101593.72;6263065;22;20496;-86
2021/07/21 04:54:06;;;;;;;12.73;8.65;;;;;;;16.95;86.86;101595.41;6264091;22;20023;-85
2021/07/21 04:56:33;;;;;;;14.88;9.35;;;;;;;17.00;86.83;101599.69;6239087;22;20073;-86
2021/07/21 04:59:06;;;;;;;11.98;8.00;;;;;;;17.06;86.74;101600.47;6237789;22;20027;-85
2021/07/21 05:01:39;;;;;;;10.50;7.45;;;;;;;17.09;86.53;101603.94;6238139;22;20019;-86
2021/07/21 05:04:06;;;;;;;12.18;8.60;;;;;;;17.13;86.44;101610.91;6261937;22;20053;-86
2021/07/21 05:06:35;;;;;;;12.75;7.95;;;;;;;17.15;86.37;101606.44;6264472;22;20395;-86
2021/07/21 05:09:07;;;;;;;12.30;7.90;;;;;;;17.17;86.31;101612.56;6237166;22;20023;-84
2021/07/21 05:11:33;;;;;;;16.05;9.57;;;;;;;17.18;86.74;101613.44;6236160;22;20015;-87
2021/07/21 05:14:00;;;;;;;15.35;9.45;;;;;;;17.15;86.78;101613.50;6262278;22;20351;-86
2021/07/21 05:16:26;;;;;;;13.82;9.10;;;;;;;17.16;86.63;101617.91;6258954;22;20028;-87
2021/07/21 05:19:09;;;;;;;18.27;8.70;;;;;;;17.15;86.87;101624.94;6235638;22;20078;-86
2021/07/21 05:21:38;;;;;;;15.30;8.73;;;;;;;17.15;86.93;101626.72;6261068;22;20889;-86
2021/07/21 05:24:06;;;;;;;16.90;9.57;;;;;;;17.16;86.69;101621.41;6263472;22;20045;-87
2021/07/21 05:26:33;;;;;;;13.82;7.93;;;;;;;17.14;86.62;101623.22;6236558;22;20103;-86
2021/07/21 05:29:02;;;;;;;16.13;9.18;;;;;;;17.17;86.94;101620.50;6260954;22;20439;-87
2021/07/21 05:31:29;;;;;;;18.02;9.30;;;;;;;17.18;86.76;101627.53;6237109;22;20085;-86
2021/07/21 05:33:55;;;;;;;10.98;9.15;;;;;;;17.20;86.57;101631.00;6233824;22;20032;-86
2021/07/21 05:36:22;;;;;;;13.25;10.27;;;;;;;17.23;86.67;101627.44;6236853;22;20093;-87
2021/07/21 05:38:49;;;;;;;10.50;8.35;;;;;;;17.27;86.59;101625.59;6260298;22;20019;-87
2021/07/21 05:41:16;;;;;;;13.38;8.50;;;;;;;17.32;86.54;101627.22;6236126;22;20058;-86
2021/07/21 05:43:43;;;;;;;19.17;9.45;;;;;;;17.40;85.98;101629.72;6235047;22;20024;-86
2021/07/21 05:46:09;;;;;;;17.70;9.45;;;;;;;17.46;85.74;101626.09;6226743;22;20031;-86
2021/07/21 05:48:38;;;;;;;12.80;8.95;;;;;;;17.48;85.54;101627.78;6232741;22;20081;-86
2021/07/21 05:51:05;;;;;;;18.63;10.85;;;;;;;17.53;85.25;101627.66;6258331;22;20217;-85
2021/07/21 05:53:31;;;;;;;13.07;9.63;;;;;;;17.56;84.84;101622.31;6257645;22;20110;-86
2021/07/21 05:55:58;;;;;;;12.82;8.80;;;;;;;17.62;84.90;101622.16;6234375;22;20046;-85
2021/07/21 05:58:25;;;;;;;15.27;10.45;;;;;;;17.68;84.50;101626.47;6257250;22;20015;-86
2021/07/21 06:00:51;;;;;;;15.55;9.90;;;;;;;17.70;84.05;101629.94;6258039;22;20020;-85
2021/07/21 06:03:18;;;;;;;15.48;9.90;;;;;;;17.71;84.02;101631.69;6284945;22;20020;-87
2021/07/21 06:05:45;;;;;;;15.73;9.27;;;;;;;17.78;83.79;101633.28;6254525;22;20451;-86
2021/07/21 06:08:14;;;;;;;14.27;10.40;;;;;;;17.85;83.53;101634.00;6231841;22;20023;-86
2021/07/21 06:10:41;;;;;;;17.15;10.98;;;;;;;17.92;83.22;101637.38;6232949;22;20019;-86
2021/07/21 06:13:11;;;;;;;16.58;10.45;;;;;;;17.89;83.27;101637.47;6232914;22;20113;-86
2021/07/21 06:15:42;;;;;;;14.15;8.73;;;;;;;17.90;82.97;101639.19;6232344;22;20023;-84
2021/07/21 06:18:09;;;;;;;18.88;11.18;;;;;;;17.94;83.01;101641.78;6260728;22;20024;-86
2021/07/21 06:20:38;;;;;;;17.85;11.40;;;;;;;18.01;82.47;101640.69;6233153;22;20666;-87
2021/07/21 06:23:05;;;;;;;16.88;10.25;;;;;;;18.05;82.15;101636.19;6237107;22;20020;-85
2021/07/21 06:25:33;;;;;;;15.93;10.02;;;;;;;18.09;81.82;101645.81;6261964;22;20527;-85
2021/07/21 06:27:59;;;;;;;20.98;10.73;;;;;;;18.10;81.61;101641.41;6234799;22;20946;-85
2021/07/21 06:30:26;;;;;;;14.15;9.70;;;;;;;18.13;81.83;101644.84;6235716;22;20073;-85
2021/07/21 06:32:53;;;;;;;14.20;10.43;;;;;;;18.21;80.95;101647.28;6259592;22;20478;-86
2021/07/21 06:35:19;;;;;;;16.70;10.40;;;;;;;18.26;80.87;101650.69;6236355;22;20031;-87
2021/07/21 06:37:48;;;;;;;17.52;10.30;;;;;;;18.30;80.30;101651.50;6262397;22;20028;-86
2021/07/21 06:40:17;;;;;;;12.52;8.93;;;;;;;18.37;80.24;101653.09;6238849;22;20426;-85
2021/07/21 06:42:44;;;;;;;16.10;10.93;;;;;;;18.48;79.62;101658.97;6264451;22;20051;-86
2021/07/21 06:45:11;;;;;;;19.10;12.15;;;;;;;18.55;79.03;101664.13;6260542;22;20027;-86
2021/07/21 06:47:38;;;;;;;13.88;10.18;;;;;;;18.56;78.92;101660.56;6238588;22;20032;-86
2021/07/21 06:50:09;;;;;;;11.43;9.32;;;;;;;18.55;78.88;101664.13;6262605;22;20022;-87
2021/07/21 06:52:35;;;;;;;17.10;10.27;;;;;;;18.58;78.67;101669.34;6237732;22;20109;-86
2021/07/21 06:55:02;;;;;;;16.10;10.20;;;;;;;18.62;78.57;101669.22;6265075;22;20024;-86
2021/07/21 06:57:29;;;;;;;16.90;11.57;;;;;;;18.65;78.18;101674.44;6260892;22;20020;-86
2021/07/21 06:59:56;;;;;;;14.93;11.57;;;;;;;18.65;77.94;101671.78;6239304;22;20027;-85
2021/07/21 07:02:23;;;;;;;13.48;10.30;;;;;;;18.62;78.09;101678.97;6234574;22;20047;-86
2021/07/21 07:04:49;;;;;;;14.52;9.48;;;;;;;18.65;77.83;101677.09;6263102;22;20069;-86
2021/07/21 07:07:19;;;;;;;13.30;9.32;;;;;;;18.70;77.74;101676.97;6234899;22;20027;-86
2021/07/21 07:09:49;;;;;;;13.95;9.27;;;;;;;18.77;77.63;101675.91;6262313;22;20023;-85
2021/07/21 07:12:16;;;;;;;14.60;9.95;;;;;;;18.85;77.21;101683.63;6238030;22;20564;-86
2021/07/21 07:14:43;;;;;;;12.00;9.25;;;;;;;18.93;77.01;101684.34;6235255;22;20026;-86
2021/07/21 07:17:10;;;;;;;13.45;10.20;;;;;;;18.98;77.01;101681.56;6236497;22;20031;-85
2021/07/21 07:19:40;;;;;;;16.10;9.63;;;;;;;19.05;76.55;101683.13;6234072;22;20027;-87
2021/07/21 07:22:09;;;;;;;12.68;9.15;;;;;;;19.11;76.23;101690.94;6235971;22;20039;-85
2021/07/21 07:24:36;;;;;;;10.50;8.15;;;;;;;19.12;76.42;101679.38;6262157;22;20447;-86
2021/07/21 07:27:05;;;;;;;14.43;9.75;;;;;;;19.13;76.35;101682.91;6233577;22;20106;-86
2021/07/21 07:29:31;;;;;;;12.48;8.10;;;;;;;19.17;76.35;101685.44;6237220;22;20023;-87
2021/07/21 07:31:58;;;;;;;16.35;10.00;;;;;;;19.21;76.32;101693.31;6233888;22;20024;-86
2021/07/21 07:34:24;;;;;;;14.13;8.80;;;;;;;19.16;76.35;101689.03;6236753;22;20023;-85
2021/07/21 07:36:51;;;;;;;15.10;9.25;;;;;;;19.18;76.43;101691.63;6233702;22;20027;-86
2021/07/21 07:39:18;;;;;;;11.70;7.85;;;;;;;19.26;76.33;101692.25;6236621;22;20032;-86
2021/07/21 07:41:45;;;;;;;13.20;9.00;;;;;;;19.37;76.19;101686.63;6262081;22;20023;-86
2021/07/21 07:44:11;;;;;;;13.18;9.38;;;;;;;19.49;75.82;101690.75;6231732;22;20055;-86
2021/07/21 07:46:38;;;;;;;10.23;7.82;;;;;;;19.65;75.08;101692.00;6260628;22;20062;-86
2021/07/21 07:49:10;;;;;;;15.65;9.55;;;;;;;19.79;74.13;101691.59;6261172;22;20134;-85
2021/07/21 07:51:38;;;;;;;12.77;6.70;;;;;;;19.96;73.52;101688.44;6237698;22;20015;-88
2021/07/21 07:54:06;;;;;;;10.50;8.05;;;;;;;20.10;72.36;101693.31;6236455;22;20042;-87
2021/07/21 07:56:34;;;;;;;10.50;7.53;;;;;;;20.27;71.01;101690.09;6234666;22;20849;-86
2021/07/21 07:59:01;;;;;;;12.15;9.43;;;;;;;20.38;70.72;101687.06;6263177;22;20031;-84
2021/07/21 08:01:28;;;;;;;11.85;7.95;;;;;;;20.49;70.39;101684.03;6257661;22;20598;-85
2021/07/21 08:03:55;;;;;;;14.40;9.63;;;;;;;20.60;70.19;101686.34;6210714;22;20027;-87
2021/07/21 08:06:22;;;;;;;10.07;8.30;;;;;;;20.71;69.28;101686.00;6235356;22;20587;-87
2021/07/21 08:08:52;;;;;;;8.57;7.40;;;;;;;20.84;68.81;101692.63;6236753;22;20031;-87
2021/07/21 08:11:20;;;;;;;17.92;8.38;;;;;;;21.07;67.75;101688.28;6236612;22;20024;-87
2021/07/21 08:13:47;;;;;;;10.48;8.07;;;;;;;21.18;67.07;101694.06;6231750;22;20199;-87
2021/07/21 08:16:16;;;;;;;10.90;8.32;;;;;;;21.20;66.45;101691.31;6213688;22;20047;-87
2021/07/21 08:18:43;;;;;;;9.80;7.72;;;;;;;21.25;66.00;101697.34;6236340;22;20042;-87
2021/07/21 08:21:10;;;;;;;8.60;7.70;;;;;;;21.42;65.56;101692.28;6237735;22;20161;-88
2021/07/21 08:23:38;;;;;;;10.27;8.73;;;;;;;21.53;64.91;101691.88;6262212;22;20173;-87
2021/07/21 08:26:05;;;;;;;13.98;8.52;;;;;;;21.61;64.27;101692.44;6236166;22;20038;-86
2021/07/21 08:28:35;;;;;;;9.32;7.10;;;;;;;21.72;63.92;101699.16;6238794;22;20023;-85
2021/07/21 08:31:01;;;;;;;9.13;6.68;;;;;;;21.94;63.25;101697.41;6258771;22;20023;-86
2021/07/21 08:33:28;;;;;;;8.20;6.35;;;;;;;22.17;61.96;101689.41;6235909;22;20341;-84
2021/07/21 08:35:57;;;;;;;8.48;6.75;;;;;;;22.28;60.85;101692.47;6233829;22;20027;-86
2021/07/21 08:38:23;;;;;;;6.90;5.68;;;;;;;22.42;60.19;101689.25;6235885;22;20043;-86
2021/07/21 08:40:51;;;;;;;8.45;6.45;;;;;;;22.62;59.11;101697.28;6263559;22;20061;-84
2021/07/21 08:43:18;;;;;;;7.70;6.97;;;;;;;22.77;58.34;101689.53;6232827;22;20046;-85
2021/07/21 08:45:47;;;;;;;8.25;6.88;;;;;;;22.95;57.66;101688.72;6260469;22;20054;-88
2021/07/21 08:48:14;;;;;;;8.13;7.15;;;;;;;23.19;57.06;101693.91;6234880;22;20044;-87
2021/07/21 08:50:46;;;;;;;9.57;6.80;;;;;;;23.55;55.54;101686.97;6236286;22;20023;-88
2021/07/21 08:53:15;;;;;;;7.18;6.45;;;;;;;23.96;54.24;101692.13;6234810;22;20123;-86
2021/07/21 08:55:42;;;;;;;9.05;6.78;;;;;;;24.71;52.42;101683.97;6234734;22;20382;-88
2021/07/21 08:58:09;;;;;;;7.68;6.70;;;;;;;25.10;50.71;101693.53;6239999;22;20031;-88
2021/07/21 09:00:36;;;;;;;8.40;6.95;;;;;;;25.44;49.63;101686.34;6234360;22;20034;-85
2021/07/21 09:03:04;;;;;;;6.25;5.68;;;;;;;25.79;48.70;101683.50;6262613;22;20245;-86
2021/07/21 09:05:31;;;;;;;7.93;7.13;;;;;;;25.90;48.07;101691.81;6230393;22;20023;-85
2021/07/21 09:07:57;;;;;;;6.25;5.65;;;;;;;25.73;47.88;101695.41;6235741;22;20117;-85
2021/07/21 09:10:24;;;;;;;8.13;5.68;;;;;;;26.15;47.01;101684.16;6264153;22;20023;-88
2021/07/21 09:12:52;;;;;;;6.88;5.90;;;;;;;27.11;44.31;101689.19;6234861;22;20447;-87
2021/07/21 09:15:26;;;;;;;6.22;5.63;;;;;;;28.14;41.83;101684.41;6241028;22;20019;-87
2021/07/21 09:18:09;;;;;;;7.53;5.38;;;;;;;28.55;39.72;101692.34;6287232;22;20077;-88
2021/07/21 09:20:57;;;;;;;7.07;6.38;;;;;;;27.78;40.50;101693.91;6239385;22;20031;-86
2021/07/21 09:23:44;;;;;;;7.45;6.38;;;;;;;26.47;42.39;101693.00;6261311;22;20081;-84
2021/07/21 09:26:42;;;;;;;5.82;5.22;;;;;;;25.45;45.04;101685.41;6235946;22;20674;-86
2021/07/21 09:29:08;;;;;;;8.02;5.80;;;;;;;24.16;47.83;101695.63;6259352;22;20126;-85
2021/07/21 09:31:43;;;;;;;7.45;5.00;;;;;;;23.19;49.83;101698.41;6235667;22;20015;-86
2021/07/21 09:34:25;;;;;;;7.07;4.80;;;;;;;22.69;50.78;101695.22;6235342;22;20409;-85
2021/07/21 09:37:12;;;;;;;6.20;5.30;;;;;;;22.27;51.79;101701.44;6263316;22;20527;-87
2021/07/21 09:39:42;;;;;;;8.82;6.00;;;;;;;21.84;54.03;101693.38;6264663;22;20089;-86
2021/07/21 09:42:12;;;;;;;7.95;5.95;;;;;;;21.44;55.53;101695.72;6236927;22;20023;-84
2021/07/21 09:44:45;;;;;;;9.20;6.22;;;;;;;21.12;57.09;101700.47;6237262;22;20020;-85
2021/07/21 09:47:21;;;;;;;10.10;5.50;;;;;;;20.94;57.71;101702.00;6259338;22;20515;-87
2021/07/21 09:49:51;;;;;;;6.32;5.45;;;;;;;20.82;57.81;101695.34;6237994;22;20022;-87
2021/07/21 09:52:24;;;;;;;7.80;5.75;;;;;;;20.75;58.39;101701.78;6241280;22;20461;-89
2021/07/21 09:55:15;;;;;;;8.02;5.97;;;;;;;20.53;58.79;101701.63;6238650;22;20030;-87
2021/07/21 09:58:02;;;;;;;6.65;6.00;;;;;;;20.36;59.71;101717.28;6243694;22;20125;-86
2021/07/21 10:00:44;;;;;;;9.98;7.07;;;;;;;20.27;60.23;101713.13;6236549;22;20059;-88
2021/07/21 10:03:30;;;;;;;8.75;6.47;;;;;;;20.27;60.72;101707.81;6266599;22;20115;-86
2021/07/21 10:06:15;;;;;;;6.75;5.43;;;;;;;20.26;61.63;101709.63;6283711;22;20031;-87
2021/07/21 10:08:43;;;;;;;9.65;6.95;;;;;;;20.32;60.89;101713.84;6265707;22;20430;-87
2021/07/21 10:11:22;;;;;;;9.65;6.05;;;;;;;20.43;60.71;101708.22;6257191;22;20377;-86
2021/07/21 10:13:50;;;;;;;8.50;5.93;;;;;;;20.55;60.42;101704.25;6264058;22;20081;-88
2021/07/21 10:16:36;;;;;;;8.60;5.75;;;;;;;20.61;60.81;101704.03;6259816;22;20027;-86
2021/07/21 10:19:16;;;;;;;7.43;6.07;;;;;;;20.66;60.40;101705.63;6210115;22;20418;-88
2021/07/21 10:21:47;;;;;;;6.50;5.88;;;;;;;20.68;60.22;101713.56;6235251;22;20023;-88
2021/07/21 10:24:14;;;;;;;8.95;6.30;;;;;;;20.70;60.08;101703.75;6234924;22;20619;-86
2021/07/21 10:26:43;;;;;;;11.48;6.55;;;;;;;20.71;60.19;101709.94;6238865;22;20019;-84
2021/07/21 10:29:12;;;;;;;11.30;7.10;;;;;;;20.65;60.83;101706.53;6233652;22;20098;-86
2021/07/21 10:31:40;;;;;;;8.35;6.88;;;;;;;20.61;61.16;101709.34;6262852;22;20066;-85
2021/07/21 10:34:07;;;;;;;11.00;6.95;;;;;;;20.59;61.38;101712.06;6262733;22;20019;-86
2021/07/21 10:36:37;;;;;;;8.82;6.65;;;;;;;20.62;61.48;101703.09;6235555;22;20048;-88
2021/07/21 10:39:16;;;;;;;8.40;6.75;;;;;;;20.60;61.49;101697.84;6260689;22;20654;-86
2021/07/21 10:41:48;;;;;;;13.43;7.93;;;;;;;20.62;61.36;101704.00;6233132;22;20020;-86
2021/07/21 10:44:18;;;;;;;10.88;7.20;;;;;;;20.61;61.24;101694.28;6234893;22;20474;-86
2021/07/21 10:46:47;;;;;;;13.50;7.82;;;;;;;20.62;61.20;101700.44;6232314;22;20027;-87
2021/07/21 10:49:30;;;;;;;8.73;6.88;;;;;;;20.79;60.99;101692.81;6235126;22;20035;-86
2021/07/21 10:55:25;;;;;;;10.23;7.25;;;;;;;21.10;59.51;101691.66;6233018;22;20332;-85
2021/07/21 11:00:43;;;;;;;10.30;7.40;;;;;;;21.30;57.22;101692.72;6263502;22;20030;-85
2021/07/21 11:03:20;;;;;;;9.88;8.48;;;;;;;21.52;56.90;101682.13;6235695;22;20042;-87
2021/07/21 11:06:07;;;;;;;12.15;7.30;;;;;;;21.79;56.28;101692.69;6259274;22;20087;-86
2021/07/21 11:08:45;;;;;;;12.27;7.88;;;;;;;22.09;54.89;101687.91;6237976;22;20447;-88
2021/07/21 11:11:22;;;;;;;12.60;9.52;;;;;;;22.39;54.12;101686.72;6235043;22;20023;-87
2021/07/21 11:13:59;;;;;;;10.02;8.77;;;;;;;22.66;52.91;101689.13;6239805;22;20069;-87
2021/07/21 11:16:52;;;;;;;10.18;7.35;;;;;;;22.85;52.37;101683.88;6259200;22;20038;-86
2021/07/21 11:19:47;;;;;;;8.43;7.53;;;;;;;23.04;51.59;101683.94;6263517;22;20088;-86
2021/07/21 11:22:19;;;;;;;13.30;8.90;;;;;;;23.23;51.09;101684.84;6261048;22;20020;-86
2021/07/21 11:25:17;;;;;;;9.90;7.95;;;;;;;23.28;50.31;101689.97;6261491;22;20027;-87
2021/07/21 11:28:02;;;;;;;13.70;8.93;;;;;;;23.43;49.95;101693.75;6236845;22;20019;-88
2021/07/21 11:30:58;;;;;;;9.48;7.65;;;;;;;23.42;49.63;101679.50;6260689;22;20560;-86
2021/07/21 11:34:05;;;;;;;10.45;8.15;;;;;;;23.52;49.17;101681.75;6235169;22;20020;-88
2021/07/21 11:36:43;;;;;;;11.20;9.05;;;;;;;23.56;49.33;101684.22;6262904;22;20026;-87
2021/07/21 11:39:41;;;;;;;9.77;7.00;;;;;;;23.48;49.56;101677.47;6262480;22;20050;-88
2021/07/21 11:42:27;;;;;;;11.15;7.82;;;;;;;23.62;49.18;101681.25;6262584;22;20069;-89
2021/07/21 11:45:08;;;;;;;10.70;8.50;;;;;;;23.73;49.27;101683.41;6262095;22;20844;-88